sensor_id;sensor_type;location;lat;lon;timestamp;temperature;humidity
15013;DHT22;7603;49.432;11.418;2023-05-10T00:00:01;13.80;91.80
15013;DHT22;7603;49.432;11.418;2023-05-10T00:02:27;13.80;92.30
15013;DHT22;7603;49.432;11.418;2023-05-10T00:04:53;13.80;92.50
15013;DHT22;7603;49.432;11.418;2023-05-10T00:07:18;13.70;92.90
15013;DHT22;7603;49.432;11.418;2023-05-10T00:09:44;13.70;93.20
15013;DHT22;7603;49.432;11.418;2023-05-10T00:12:09;13.70;93.60
15013;DHT22;7603;49.432;11.418;2023-05-10T00:14:35;13.70;94.20
15013;DHT22;7603;49.432;11.418;2023-05-10T00:17:01;13.70;93.90
15013;DHT22;7603;49.432;11.418;2023-05-10T00:19:26;13.70;94.40
15013;DHT22;7603;49.432;11.418;2023-05-10T00:21:52;13.60;94.20
15013;DHT22;7603;49.432;11.418;2023-05-10T00:24:18;13.60;94.00
15013;DHT22;7603;49.432;11.418;2023-05-10T00:26:43;13.60;94.40
15013;DHT22;7603;49.432;11.418;2023-05-10T00:29:09;13.60;94.40
15013;DHT22;7603;49.432;11.418;2023-05-10T00:31:34;13.70;94.50
15013;DHT22;7603;49.432;11.418;2023-05-10T00:34:00;13.70;94.40
15013;DHT22;7603;49.432;11.418;2023-05-10T00:36:25;13.70;94.40
15013;DHT22;7603;49.432;11.418;2023-05-10T00:38:51;13.70;94.30
15013;DHT22;7603;49.432;11.418;2023-05-10T00:41:17;13.70;94.30
15013;DHT22;7603;49.432;11.418;2023-05-10T00:43:42;13.70;93.80
15013;DHT22;7603;49.432;11.418;2023-05-10T00:46:08;13.80;93.40
15013;DHT22;7603;49.432;11.418;2023-05-10T00:48:34;13.80;92.60
15013;DHT22;7603;49.432;11.418;2023-05-10T00:51:01;13.80;92.80
15013;DHT22;7603;49.432;11.418;2023-05-10T00:53:27;13.90;93.20
15013;DHT22;7603;49.432;11.418;2023-05-10T00:55:53;13.90;93.40
15013;DHT22;7603;49.432;11.418;2023-05-10T00:58:18;13.80;93.50
15013;DHT22;7603;49.432;11.418;2023-05-10T01:00:46;13.90;94.20
15013;DHT22;7603;49.432;11.418;2023-05-10T01:03:12;13.80;94.30
15013;DHT22;7603;49.432;11.418;2023-05-10T01:05:38;13.90;94.70
15013;DHT22;7603;49.432;11.418;2023-05-10T01:08:04;13.90;94.80
15013;DHT22;7603;49.432;11.418;2023-05-10T01:10:30;13.90;94.90
15013;DHT22;7603;49.432;11.418;2023-05-10T01:12:56;13.90;94.60
15013;DHT22;7603;49.432;11.418;2023-05-10T01:15:22;13.90;94.80
15013;DHT22;7603;49.432;11.418;2023-05-10T01:17:48;14.00;94.90
15013;DHT22;7603;49.432;11.418;2023-05-10T01:20:14;14.00;94.30
15013;DHT22;7603;49.432;11.418;2023-05-10T01:33:58;14.00;94.80
15013;DHT22;7603;49.432;11.418;2023-05-10T01:36:31;14.10;95.20
15013;DHT22;7603;49.432;11.418;2023-05-10T01:39:23;14.10;95.30
15013;DHT22;7603;49.432;11.418;2023-05-10T01:41:57;14.10;95.40
15013;DHT22;7603;49.432;11.418;2023-05-10T01:44:43;14.10;95.50
15013;DHT22;7603;49.432;11.418;2023-05-10T01:47:15;14.10;94.70
15013;DHT22;7603;49.432;11.418;2023-05-10T01:49:47;14.10;95.40
15013;DHT22;7603;49.432;11.418;2023-05-10T01:52:18;14.10;95.60
15013;DHT22;7603;49.432;11.418;2023-05-10T01:54:55;14.10;95.50
15013;DHT22;7603;49.432;11.418;2023-05-10T01:57:22;14.20;96.00
15013;DHT22;7603;49.432;11.418;2023-05-10T01:59:50;14.10;95.80
15013;DHT22;7603;49.432;11.418;2023-05-10T02:02:20;14.20;96.70
15013;DHT22;7603;49.432;11.418;2023-05-10T02:04:46;14.10;96.70
15013;DHT22;7603;49.432;11.418;2023-05-10T02:07:13;14.10;97.20
15013;DHT22;7603;49.432;11.418;2023-05-10T02:09:40;14.10;97.90
15013;DHT22;7603;49.432;11.418;2023-05-10T02:12:09;14.10;99.00
15013;DHT22;7603;49.432;11.418;2023-05-10T02:14:36;14.00;99.90
15013;DHT22;7603;49.432;11.418;2023-05-10T02:17:04;14.00;99.90
15013;DHT22;7603;49.432;11.418;2023-05-10T02:19:32;13.90;99.90
15013;DHT22;7603;49.432;11.418;2023-05-10T02:21:59;13.80;99.90
15013;DHT22;7603;49.432;11.418;2023-05-10T02:24:25;13.80;99.90
15013;DHT22;7603;49.432;11.418;2023-05-10T02:26:54;13.70;99.90
15013;DHT22;7603;49.432;11.418;2023-05-10T02:29:23;13.70;99.90
15013;DHT22;7603;49.432;11.418;2023-05-10T02:31:51;13.70;99.90
15013;DHT22;7603;49.432;11.418;2023-05-10T02:34:19;13.70;99.90
15013;DHT22;7603;49.432;11.418;2023-05-10T02:36:47;13.70;99.90
15013;DHT22;7603;49.432;11.418;2023-05-10T02:39:14;13.70;99.90
15013;DHT22;7603;49.432;11.418;2023-05-10T02:41:41;13.70;99.90
15013;DHT22;7603;49.432;11.418;2023-05-10T02:44:08;13.70;99.90
15013;DHT22;7603;49.432;11.418;2023-05-10T02:46:35;13.70;99.90
15013;DHT22;7603;49.432;11.418;2023-05-10T02:49:02;13.70;99.90
15013;DHT22;7603;49.432;11.418;2023-05-10T02:51:31;13.70;99.90
15013;DHT22;7603;49.432;11.418;2023-05-10T02:53:57;13.60;99.90
15013;DHT22;7603;49.432;11.418;2023-05-10T02:56:28;13.60;99.90
15013;DHT22;7603;49.432;11.418;2023-05-10T02:58:55;13.50;99.90
15013;DHT22;7603;49.432;11.418;2023-05-10T03:01:20;13.50;99.90
15013;DHT22;7603;49.432;11.418;2023-05-10T03:03:46;13.40;99.90
15013;DHT22;7603;49.432;11.418;2023-05-10T03:06:11;13.30;99.90
15013;DHT22;7603;49.432;11.418;2023-05-10T03:08:37;13.30;99.90
15013;DHT22;7603;49.432;11.418;2023-05-10T03:16:46;13.30;99.90
15013;DHT22;7603;49.432;11.418;2023-05-10T03:19:21;13.30;99.90
15013;DHT22;7603;49.432;11.418;2023-05-10T03:21:50;13.30;99.90
15013;DHT22;7603;49.432;11.418;2023-05-10T03:24:20;13.30;99.90
15013;DHT22;7603;49.432;11.418;2023-05-10T03:26:47;13.30;99.90
15013;DHT22;7603;49.432;11.418;2023-05-10T03:29:14;13.30;99.90
15013;DHT22;7603;49.432;11.418;2023-05-10T03:31:41;13.30;99.90
15013;DHT22;7603;49.432;11.418;2023-05-10T03:34:06;13.30;99.90
15013;DHT22;7603;49.432;11.418;2023-05-10T03:36:32;13.30;99.90
15013;DHT22;7603;49.432;11.418;2023-05-10T03:38:58;13.30;99.90
15013;DHT22;7603;49.432;11.418;2023-05-10T03:41:24;13.40;99.90
15013;DHT22;7603;49.432;11.418;2023-05-10T03:43:51;13.40;99.90
15013;DHT22;7603;49.432;11.418;2023-05-10T03:46:16;13.40;99.90
15013;DHT22;7603;49.432;11.418;2023-05-10T03:48:42;13.40;99.90
15013;DHT22;7603;49.432;11.418;2023-05-10T03:51:07;13.40;99.90
15013;DHT22;7603;49.432;11.418;2023-05-10T03:53:33;13.40;99.90
15013;DHT22;7603;49.432;11.418;2023-05-10T03:55:59;13.40;99.90
15013;DHT22;7603;49.432;11.418;2023-05-10T03:58:24;13.40;99.90
15013;DHT22;7603;49.432;11.418;2023-05-10T04:00:51;13.30;99.90
15013;DHT22;7603;49.432;11.418;2023-05-10T04:03:17;13.10;99.90
15013;DHT22;7603;49.432;11.418;2023-05-10T04:05:43;13.00;99.90
15013;DHT22;7603;49.432;11.418;2023-05-10T04:08:09;12.80;99.90
15013;DHT22;7603;49.432;11.418;2023-05-10T04:10:34;12.80;99.90
15013;DHT22;7603;49.432;11.418;2023-05-10T04:13:00;12.70;99.90
15013;DHT22;7603;49.432;11.418;2023-05-10T04:15:26;12.70;99.90
15013;DHT22;7603;49.432;11.418;2023-05-10T04:17:51;12.70;99.90
15013;DHT22;7603;49.432;11.418;2023-05-10T04:20:17;12.60;99.90
15013;DHT22;7603;49.432;11.418;2023-05-10T04:22:43;12.70;99.90
15013;DHT22;7603;49.432;11.418;2023-05-10T04:25:08;12.60;99.90
15013;DHT22;7603;49.432;11.418;2023-05-10T04:27:34;12.60;99.90
15013;DHT22;7603;49.432;11.418;2023-05-10T04:30:00;12.60;99.90
15013;DHT22;7603;49.432;11.418;2023-05-10T04:32:25;12.50;99.90
15013;DHT22;7603;49.432;11.418;2023-05-10T04:34:51;12.50;99.90
15013;DHT22;7603;49.432;11.418;2023-05-10T04:37:17;12.40;99.90
15013;DHT22;7603;49.432;11.418;2023-05-10T04:39:43;12.50;99.90
15013;DHT22;7603;49.432;11.418;2023-05-10T04:42:09;12.40;99.90
15013;DHT22;7603;49.432;11.418;2023-05-10T04:44:35;12.50;99.90
15013;DHT22;7603;49.432;11.418;2023-05-10T04:47:00;12.40;99.90
15013;DHT22;7603;49.432;11.418;2023-05-10T04:49:27;12.40;99.90
15013;DHT22;7603;49.432;11.418;2023-05-10T04:51:53;12.40;99.90
15013;DHT22;7603;49.432;11.418;2023-05-10T04:54:19;12.40;99.90
15013;DHT22;7603;49.432;11.418;2023-05-10T04:56:45;12.50;99.90
15013;DHT22;7603;49.432;11.418;2023-05-10T04:59:10;12.50;99.90
15013;DHT22;7603;49.432;11.418;2023-05-10T05:01:36;12.50;99.90
15013;DHT22;7603;49.432;11.418;2023-05-10T05:04:01;12.50;99.90
15013;DHT22;7603;49.432;11.418;2023-05-10T05:06:27;12.50;99.90
15013;DHT22;7603;49.432;11.418;2023-05-10T05:08:53;12.50;99.90
15013;DHT22;7603;49.432;11.418;2023-05-10T05:11:18;12.50;99.90
15013;DHT22;7603;49.432;11.418;2023-05-10T05:13:44;12.50;99.90
15013;DHT22;7603;49.432;11.418;2023-05-10T05:16:10;12.50;99.90
15013;DHT22;7603;49.432;11.418;2023-05-10T05:18:36;12.40;99.90
15013;DHT22;7603;49.432;11.418;2023-05-10T05:21:02;12.40;99.90
15013;DHT22;7603;49.432;11.418;2023-05-10T05:23:29;12.40;99.90
15013;DHT22;7603;49.432;11.418;2023-05-10T05:25:54;12.50;99.90
15013;DHT22;7603;49.432;11.418;2023-05-10T05:28:20;12.50;99.90
15013;DHT22;7603;49.432;11.418;2023-05-10T05:30:46;12.60;99.90
15013;DHT22;7603;49.432;11.418;2023-05-10T05:33:13;12.60;99.90
15013;DHT22;7603;49.432;11.418;2023-05-10T05:35:41;12.60;99.90
15013;DHT22;7603;49.432;11.418;2023-05-10T05:38:08;12.60;99.90
15013;DHT22;7603;49.432;11.418;2023-05-10T05:40:33;12.70;99.90
15013;DHT22;7603;49.432;11.418;2023-05-10T05:42:59;12.80;99.90
15013;DHT22;7603;49.432;11.418;2023-05-10T05:45:24;12.90;99.90
15013;DHT22;7603;49.432;11.418;2023-05-10T05:47:50;13.10;99.90
15013;DHT22;7603;49.432;11.418;2023-05-10T05:50:16;13.20;99.90
15013;DHT22;7603;49.432;11.418;2023-05-10T05:52:41;13.40;99.90
15013;DHT22;7603;49.432;11.418;2023-05-10T05:55:07;13.50;99.90
15013;DHT22;7603;49.432;11.418;2023-05-10T05:57:33;13.60;99.90
15013;DHT22;7603;49.432;11.418;2023-05-10T05:59:58;13.80;99.90
15013;DHT22;7603;49.432;11.418;2023-05-10T06:02:24;13.90;99.90
15013;DHT22;7603;49.432;11.418;2023-05-10T06:04:50;14.00;99.90
15013;DHT22;7603;49.432;11.418;2023-05-10T06:07:16;14.20;99.90
15013;DHT22;7603;49.432;11.418;2023-05-10T06:09:41;14.20;99.90
15013;DHT22;7603;49.432;11.418;2023-05-10T06:12:07;14.30;99.90
15013;DHT22;7603;49.432;11.418;2023-05-10T06:14:32;14.30;99.90
15013;DHT22;7603;49.432;11.418;2023-05-10T06:16:58;14.30;99.90
15013;DHT22;7603;49.432;11.418;2023-05-10T06:19:25;14.40;99.90
15013;DHT22;7603;49.432;11.418;2023-05-10T06:21:51;14.40;99.90
15013;DHT22;7603;49.432;11.418;2023-05-10T06:24:17;14.50;99.90
15013;DHT22;7603;49.432;11.418;2023-05-10T06:26:42;14.60;99.90
15013;DHT22;7603;49.432;11.418;2023-05-10T06:29:08;14.80;99.90
15013;DHT22;7603;49.432;11.418;2023-05-10T06:31:33;14.80;99.90
15013;DHT22;7603;49.432;11.418;2023-05-10T06:33:59;14.90;99.90
15013;DHT22;7603;49.432;11.418;2023-05-10T06:36:25;15.00;99.90
15013;DHT22;7603;49.432;11.418;2023-05-10T06:38:51;15.10;99.90
15013;DHT22;7603;49.432;11.418;2023-05-10T06:41:17;15.20;99.90
15013;DHT22;7603;49.432;11.418;2023-05-10T06:43:43;15.20;99.90
15013;DHT22;7603;49.432;11.418;2023-05-10T06:46:08;15.30;99.90
15013;DHT22;7603;49.432;11.418;2023-05-10T06:48:34;15.40;99.90
15013;DHT22;7603;49.432;11.418;2023-05-10T06:51:00;15.70;99.90
15013;DHT22;7603;49.432;11.418;2023-05-10T06:53:25;15.90;99.90
15013;DHT22;7603;49.432;11.418;2023-05-10T06:55:51;16.10;99.90
15013;DHT22;7603;49.432;11.418;2023-05-10T06:58:17;16.20;99.90
15013;DHT22;7603;49.432;11.418;2023-05-10T07:00:42;16.30;99.90
15013;DHT22;7603;49.432;11.418;2023-05-10T07:03:10;16.30;99.90
15013;DHT22;7603;49.432;11.418;2023-05-10T07:05:36;16.20;99.90
15013;DHT22;7603;49.432;11.418;2023-05-10T07:08:01;16.20;99.90
15013;DHT22;7603;49.432;11.418;2023-05-10T07:10:27;16.10;99.90
15013;DHT22;7603;49.432;11.418;2023-05-10T07:12:53;16.10;99.90
15013;DHT22;7603;49.432;11.418;2023-05-10T07:15:18;16.00;99.90
15013;DHT22;7603;49.432;11.418;2023-05-10T07:17:44;15.90;99.90
15013;DHT22;7603;49.432;11.418;2023-05-10T07:20:11;15.90;99.90
15013;DHT22;7603;49.432;11.418;2023-05-10T07:22:36;16.10;99.90
15013;DHT22;7603;49.432;11.418;2023-05-10T07:25:02;15.90;99.90
15013;DHT22;7603;49.432;11.418;2023-05-10T07:27:28;16.00;99.90
15013;DHT22;7603;49.432;11.418;2023-05-10T07:29:53;16.00;99.90
15013;DHT22;7603;49.432;11.418;2023-05-10T07:32:20;16.00;99.90
15013;DHT22;7603;49.432;11.418;2023-05-10T07:34:46;16.10;99.90
15013;DHT22;7603;49.432;11.418;2023-05-10T07:37:12;16.20;99.90
15013;DHT22;7603;49.432;11.418;2023-05-10T07:39:37;16.30;99.90
15013;DHT22;7603;49.432;11.418;2023-05-10T07:42:03;16.20;99.90
15013;DHT22;7603;49.432;11.418;2023-05-10T07:44:29;16.20;99.90
15013;DHT22;7603;49.432;11.418;2023-05-10T07:46:54;16.10;99.90
15013;DHT22;7603;49.432;11.418;2023-05-10T07:49:21;16.20;99.90
15013;DHT22;7603;49.432;11.418;2023-05-10T07:51:46;16.30;99.90
15013;DHT22;7603;49.432;11.418;2023-05-10T07:54:12;16.60;99.90
15013;DHT22;7603;49.432;11.418;2023-05-10T07:56:38;16.70;99.90
15013;DHT22;7603;49.432;11.418;2023-05-10T07:59:04;16.80;99.90
15013;DHT22;7603;49.432;11.418;2023-05-10T08:01:33;16.70;99.90
15013;DHT22;7603;49.432;11.418;2023-05-10T08:04:00;16.60;99.90
15013;DHT22;7603;49.432;11.418;2023-05-10T08:06:26;16.40;99.90
15013;DHT22;7603;49.432;11.418;2023-05-10T08:08:55;16.30;99.90
15013;DHT22;7603;49.432;11.418;2023-05-10T08:11:21;16.10;99.90
15013;DHT22;7603;49.432;11.418;2023-05-10T08:13:48;15.90;99.90
15013;DHT22;7603;49.432;11.418;2023-05-10T08:16:15;15.80;99.90
15013;DHT22;7603;49.432;11.418;2023-05-10T08:18:40;15.60;99.90
15013;DHT22;7603;49.432;11.418;2023-05-10T08:21:06;15.60;99.90
15013;DHT22;7603;49.432;11.418;2023-05-10T08:23:32;15.70;99.90
15013;DHT22;7603;49.432;11.418;2023-05-10T08:25:59;15.80;99.90
15013;DHT22;7603;49.432;11.418;2023-05-10T08:28:24;16.00;99.90
15013;DHT22;7603;49.432;11.418;2023-05-10T08:30:50;16.30;99.90
15013;DHT22;7603;49.432;11.418;2023-05-10T08:33:17;16.40;99.90
15013;DHT22;7603;49.432;11.418;2023-05-10T08:35:43;16.50;99.90
15013;DHT22;7603;49.432;11.418;2023-05-10T08:38:09;16.50;99.90
15013;DHT22;7603;49.432;11.418;2023-05-10T08:40:34;16.50;99.90
15013;DHT22;7603;49.432;11.418;2023-05-10T08:43:06;16.40;99.90
15013;DHT22;7603;49.432;11.418;2023-05-10T08:45:36;16.30;99.90
15013;DHT22;7603;49.432;11.418;2023-05-10T08:48:05;16.20;99.90
15013;DHT22;7603;49.432;11.418;2023-05-10T08:50:31;16.10;99.90
15013;DHT22;7603;49.432;11.418;2023-05-10T08:53:00;16.00;99.90
15013;DHT22;7603;49.432;11.418;2023-05-10T08:55:27;16.00;99.90
15013;DHT22;7603;49.432;11.418;2023-05-10T08:57:53;16.00;99.90
15013;DHT22;7603;49.432;11.418;2023-05-10T09:00:19;16.10;99.90
15013;DHT22;7603;49.432;11.418;2023-05-10T09:02:45;16.10;99.90
15013;DHT22;7603;49.432;11.418;2023-05-10T09:05:13;16.20;99.90
15013;DHT22;7603;49.432;11.418;2023-05-10T09:07:41;16.20;99.90
15013;DHT22;7603;49.432;11.418;2023-05-10T09:10:07;16.40;99.90
15013;DHT22;7603;49.432;11.418;2023-05-10T09:12:34;16.60;99.90
15013;DHT22;7603;49.432;11.418;2023-05-10T09:15:01;16.90;99.90
15013;DHT22;7603;49.432;11.418;2023-05-10T09:17:27;17.20;99.90
15013;DHT22;7603;49.432;11.418;2023-05-10T09:20:02;17.60;99.90
15013;DHT22;7603;49.432;11.418;2023-05-10T09:22:28;18.10;99.90
15013;DHT22;7603;49.432;11.418;2023-05-10T09:25:08;18.60;99.90
15013;DHT22;7603;49.432;11.418;2023-05-10T09:27:38;19.40;99.90
15013;DHT22;7603;49.432;11.418;2023-05-10T09:30:05;20.20;99.90
15013;DHT22;7603;49.432;11.418;2023-05-10T09:32:44;21.10;99.90
15013;DHT22;7603;49.432;11.418;2023-05-10T09:35:12;22.10;99.90
15013;DHT22;7603;49.432;11.418;2023-05-10T09:37:43;22.70;99.90
15013;DHT22;7603;49.432;11.418;2023-05-10T09:40:13;22.80;96.00
15013;DHT22;7603;49.432;11.418;2023-05-10T09:42:40;22.40;95.70
15013;DHT22;7603;49.432;11.418;2023-05-10T09:45:07;22.00;97.10
15013;DHT22;7603;49.432;11.418;2023-05-10T09:47:34;21.60;96.40
15013;DHT22;7603;49.432;11.418;2023-05-10T09:50:00;21.30;96.60
15013;DHT22;7603;49.432;11.418;2023-05-10T09:52:31;21.10;96.80
15013;DHT22;7603;49.432;11.418;2023-05-10T09:55:10;20.80;97.90
15013;DHT22;7603;49.432;11.418;2023-05-10T09:57:36;20.60;98.10
15013;DHT22;7603;49.432;11.418;2023-05-10T10:00:01;20.50;98.10
15013;DHT22;7603;49.432;11.418;2023-05-10T10:02:31;20.40;98.50
15013;DHT22;7603;49.432;11.418;2023-05-10T10:04:56;19.90;99.90
15013;DHT22;7603;49.432;11.418;2023-05-10T10:07:23;18.00;99.90
15013;DHT22;7603;49.432;11.418;2023-05-10T10:09:52;16.50;99.90
15013;DHT22;7603;49.432;11.418;2023-05-10T10:12:18;15.60;99.90
15013;DHT22;7603;49.432;11.418;2023-05-10T10:14:46;15.10;99.90
15013;DHT22;7603;49.432;11.418;2023-05-10T10:17:13;15.00;99.90
15013;DHT22;7603;49.432;11.418;2023-05-10T10:19:38;15.00;99.90
15013;DHT22;7603;49.432;11.418;2023-05-10T10:22:04;15.10;99.90
15013;DHT22;7603;49.432;11.418;2023-05-10T10:24:31;15.20;99.90
15013;DHT22;7603;49.432;11.418;2023-05-10T10:27:48;15.40;99.90
15013;DHT22;7603;49.432;11.418;2023-05-10T10:30:00;15.50;99.90
15013;DHT22;7603;49.432;11.418;2023-05-10T10:35:22;15.60;99.90
15013;DHT22;7603;49.432;11.418;2023-05-10T10:37:50;15.60;99.90
15013;DHT22;7603;49.432;11.418;2023-05-10T10:40:32;15.70;99.90
15013;DHT22;7603;49.432;11.418;2023-05-10T10:43:22;15.70;99.90
15013;DHT22;7603;49.432;11.418;2023-05-10T10:48:37;15.90;99.90
15013;DHT22;7603;49.432;11.418;2023-05-10T10:51:03;16.10;99.90
15013;DHT22;7603;49.432;11.418;2023-05-10T10:53:29;16.30;99.90
15013;DHT22;7603;49.432;11.418;2023-05-10T10:56:11;16.60;99.90
15013;DHT22;7603;49.432;11.418;2023-05-10T10:58:38;16.90;99.90
15013;DHT22;7603;49.432;11.418;2023-05-10T11:01:17;17.30;99.90
15013;DHT22;7603;49.432;11.418;2023-05-10T11:06:40;18.20;99.90
15013;DHT22;7603;49.432;11.418;2023-05-10T11:09:09;18.70;99.90
15013;DHT22;7603;49.432;11.418;2023-05-10T11:11:36;19.40;99.90
15013;DHT22;7603;49.432;11.418;2023-05-10T11:14:13;20.10;99.90
15013;DHT22;7603;49.432;11.418;2023-05-10T11:16:43;20.80;99.90
15013;DHT22;7603;49.432;11.418;2023-05-10T11:19:11;21.50;99.90
15013;DHT22;7603;49.432;11.418;2023-05-10T11:24:33;22.60;99.90
15013;DHT22;7603;49.432;11.418;2023-05-10T11:26:59;23.20;99.90
15013;DHT22;7603;49.432;11.418;2023-05-10T11:29:25;24.20;99.90
15013;DHT22;7603;49.432;11.418;2023-05-10T11:31:51;25.00;99.90
15013;DHT22;7603;49.432;11.418;2023-05-10T11:34:31;25.50;99.90
15013;DHT22;7603;49.432;11.418;2023-05-10T11:36:59;25.50;99.90
15013;DHT22;7603;49.432;11.418;2023-05-10T11:39:31;25.20;99.90
15013;DHT22;7603;49.432;11.418;2023-05-10T11:41:58;24.70;99.90
15013;DHT22;7603;49.432;11.418;2023-05-10T11:44:28;24.20;99.90
15013;DHT22;7603;49.432;11.418;2023-05-10T11:46:54;23.60;99.90
15013;DHT22;7603;49.432;11.418;2023-05-10T11:49:20;22.90;99.90
15013;DHT22;7603;49.432;11.418;2023-05-10T11:51:49;22.30;99.90
15013;DHT22;7603;49.432;11.418;2023-05-10T11:54:14;21.80;99.90
15013;DHT22;7603;49.432;11.418;2023-05-10T11:56:40;21.30;99.90
15013;DHT22;7603;49.432;11.418;2023-05-10T11:59:07;20.80;99.90
15013;DHT22;7603;49.432;11.418;2023-05-10T12:01:33;20.20;99.90
15013;DHT22;7603;49.432;11.418;2023-05-10T12:03:59;19.70;99.90
15013;DHT22;7603;49.432;11.418;2023-05-10T12:06:30;19.10;99.90
15013;DHT22;7603;49.432;11.418;2023-05-10T12:08:57;18.50;99.90
15013;DHT22;7603;49.432;11.418;2023-05-10T12:11:27;18.00;99.90
15013;DHT22;7603;49.432;11.418;2023-05-10T12:13:54;17.70;99.90
15013;DHT22;7603;49.432;11.418;2023-05-10T12:16:23;17.50;99.90
15013;DHT22;7603;49.432;11.418;2023-05-10T12:18:52;17.40;99.90
15013;DHT22;7603;49.432;11.418;2023-05-10T12:21:20;17.60;99.90
15013;DHT22;7603;49.432;11.418;2023-05-10T12:23:47;17.80;99.90
15013;DHT22;7603;49.432;11.418;2023-05-10T12:26:14;18.10;99.90
15013;DHT22;7603;49.432;11.418;2023-05-10T12:28:40;18.40;99.90
15013;DHT22;7603;49.432;11.418;2023-05-10T12:31:06;18.80;99.90
15013;DHT22;7603;49.432;11.418;2023-05-10T12:33:42;19.20;99.90
15013;DHT22;7603;49.432;11.418;2023-05-10T12:36:12;19.60;99.90
15013;DHT22;7603;49.432;11.418;2023-05-10T12:38:40;20.10;99.90
15013;DHT22;7603;49.432;11.418;2023-05-10T12:41:26;20.60;99.90
15013;DHT22;7603;49.432;11.418;2023-05-10T12:43:51;21.20;99.90
15013;DHT22;7603;49.432;11.418;2023-05-10T12:46:17;21.70;99.90
15013;DHT22;7603;49.432;11.418;2023-05-10T12:48:44;22.20;99.90
15013;DHT22;7603;49.432;11.418;2023-05-10T12:51:11;22.70;99.90
15013;DHT22;7603;49.432;11.418;2023-05-10T12:53:39;23.00;99.90
15013;DHT22;7603;49.432;11.418;2023-05-10T12:56:05;23.20;99.90
15013;DHT22;7603;49.432;11.418;2023-05-10T12:58:31;23.40;99.90
15013;DHT22;7603;49.432;11.418;2023-05-10T13:00:57;23.50;99.90
15013;DHT22;7603;49.432;11.418;2023-05-10T13:03:23;23.60;99.90
15013;DHT22;7603;49.432;11.418;2023-05-10T13:05:49;23.50;99.90
15013;DHT22;7603;49.432;11.418;2023-05-10T13:08:14;23.40;99.90
15013;DHT22;7603;49.432;11.418;2023-05-10T13:10:40;23.10;99.40
15013;DHT22;7603;49.432;11.418;2023-05-10T13:13:06;22.70;99.90
15013;DHT22;7603;49.432;11.418;2023-05-10T13:15:32;22.40;99.90
15013;DHT22;7603;49.432;11.418;2023-05-10T13:17:58;22.20;99.90
15013;DHT22;7603;49.432;11.418;2023-05-10T13:20:24;21.90;99.90
15013;DHT22;7603;49.432;11.418;2023-05-10T13:22:50;21.50;99.90
15013;DHT22;7603;49.432;11.418;2023-05-10T13:25:16;21.30;99.90
15013;DHT22;7603;49.432;11.418;2023-05-10T13:27:41;21.10;99.90
15013;DHT22;7603;49.432;11.418;2023-05-10T13:30:08;20.90;99.90
15013;DHT22;7603;49.432;11.418;2023-05-10T13:32:34;20.90;99.90
15013;DHT22;7603;49.432;11.418;2023-05-10T13:35:01;20.80;99.90
15013;DHT22;7603;49.432;11.418;2023-05-10T13:37:28;20.90;99.90
15013;DHT22;7603;49.432;11.418;2023-05-10T13:39:54;21.00;99.90
15013;DHT22;7603;49.432;11.418;2023-05-10T13:42:22;21.20;99.90
15013;DHT22;7603;49.432;11.418;2023-05-10T13:44:52;21.40;99.90
15013;DHT22;7603;49.432;11.418;2023-05-10T13:47:18;21.70;99.90
15013;DHT22;7603;49.432;11.418;2023-05-10T13:49:43;22.10;99.90
15013;DHT22;7603;49.432;11.418;2023-05-10T13:52:09;22.60;99.90
15013;DHT22;7603;49.432;11.418;2023-05-10T13:54:36;23.10;99.40
15013;DHT22;7603;49.432;11.418;2023-05-10T13:57:02;23.50;98.20
15013;DHT22;7603;49.432;11.418;2023-05-10T13:59:28;24.00;96.30
15013;DHT22;7603;49.432;11.418;2023-05-10T14:01:54;24.50;95.80
15013;DHT22;7603;49.432;11.418;2023-05-10T14:04:20;24.90;91.80
15013;DHT22;7603;49.432;11.418;2023-05-10T14:06:46;25.40;90.60
15013;DHT22;7603;49.432;11.418;2023-05-10T14:09:11;26.10;86.30
15013;DHT22;7603;49.432;11.418;2023-05-10T14:11:37;26.80;79.90
15013;DHT22;7603;49.432;11.418;2023-05-10T14:14:07;27.60;73.80
15013;DHT22;7603;49.432;11.418;2023-05-10T14:16:33;28.10;71.40
15013;DHT22;7603;49.432;11.418;2023-05-10T14:18:59;28.50;68.50
15013;DHT22;7603;49.432;11.418;2023-05-10T14:21:24;29.00;66.90
15013;DHT22;7603;49.432;11.418;2023-05-10T14:23:50;30.50;62.20
15013;DHT22;7603;49.432;11.418;2023-05-10T14:26:15;31.60;58.30
15013;DHT22;7603;49.432;11.418;2023-05-10T14:28:41;32.00;54.80
15013;DHT22;7603;49.432;11.418;2023-05-10T14:31:07;31.80;52.80
15013;DHT22;7603;49.432;11.418;2023-05-10T14:33:32;31.60;53.70
15013;DHT22;7603;49.432;11.418;2023-05-10T14:35:58;31.40;53.40
15013;DHT22;7603;49.432;11.418;2023-05-10T14:38:25;31.20;53.40
15013;DHT22;7603;49.432;11.418;2023-05-10T14:40:52;30.90;54.00
15013;DHT22;7603;49.432;11.418;2023-05-10T14:43:17;30.30;54.30
15013;DHT22;7603;49.432;11.418;2023-05-10T14:45:43;29.60;55.00
15013;DHT22;7603;49.432;11.418;2023-05-10T14:48:10;28.80;55.90
15013;DHT22;7603;49.432;11.418;2023-05-10T14:50:40;28.30;57.50
15013;DHT22;7603;49.432;11.418;2023-05-10T14:53:06;27.90;56.20
15013;DHT22;7603;49.432;11.418;2023-05-10T14:55:31;27.40;57.30
15013;DHT22;7603;49.432;11.418;2023-05-10T14:57:58;26.90;57.50
15013;DHT22;7603;49.432;11.418;2023-05-10T15:00:23;26.30;57.00
15013;DHT22;7603;49.432;11.418;2023-05-10T15:02:49;26.10;58.30
15013;DHT22;7603;49.432;11.418;2023-05-10T15:05:15;25.80;59.70
15013;DHT22;7603;49.432;11.418;2023-05-10T15:07:40;25.60;58.40
15013;DHT22;7603;49.432;11.418;2023-05-10T15:10:09;25.70;59.90
15013;DHT22;7603;49.432;11.418;2023-05-10T15:12:35;25.70;60.50
15013;DHT22;7603;49.432;11.418;2023-05-10T15:15:00;25.90;60.20
15013;DHT22;7603;49.432;11.418;2023-05-10T15:17:26;25.90;59.30
15013;DHT22;7603;49.432;11.418;2023-05-10T15:19:52;25.80;60.20
15013;DHT22;7603;49.432;11.418;2023-05-10T15:22:17;25.40;60.10
15013;DHT22;7603;49.432;11.418;2023-05-10T15:24:43;25.00;62.70
15013;DHT22;7603;49.432;11.418;2023-05-10T15:27:08;24.60;64.90
15013;DHT22;7603;49.432;11.418;2023-05-10T15:29:34;24.00;64.50
15013;DHT22;7603;49.432;11.418;2023-05-10T15:32:01;23.60;67.40
15013;DHT22;7603;49.432;11.418;2023-05-10T15:34:28;23.30;68.20
15013;DHT22;7603;49.432;11.418;2023-05-10T15:36:53;23.10;69.40
15013;DHT22;7603;49.432;11.418;2023-05-10T15:39:19;22.80;71.20
15013;DHT22;7603;49.432;11.418;2023-05-10T15:41:45;22.60;70.80
15013;DHT22;7603;49.432;11.418;2023-05-10T15:44:10;22.30;71.70
15013;DHT22;7603;49.432;11.418;2023-05-10T15:46:36;22.00;74.00
15013;DHT22;7603;49.432;11.418;2023-05-10T15:49:03;21.70;74.40
15013;DHT22;7603;49.432;11.418;2023-05-10T15:51:28;21.60;75.20
15013;DHT22;7603;49.432;11.418;2023-05-10T15:53:58;21.60;76.40
15013;DHT22;7603;49.432;11.418;2023-05-10T15:56:24;21.50;76.80